Flight Track Log - Related Links

Times and Time Zones

All times are in EDT time to prevent confusion due to time zone crossing. See the EJA929 flight status page for this flight to view local times or setup timezone preferences in your user account.


Time Position Orientation Groundspeed Altitude Reporting Facility
EDT Latitude Longitude Course Direction KTS MPH feet Rate Location/Type
Thu 01:21:46 PM 44.0206 -69.0778 238° Southwest 214 246 3,000  Level Boston Center
Thu 01:22:47 PM 43.9894 -69.1528 240° Southwest 221 254 6,900 3,639 Climbing Boston Center
Thu 01:23:48 PM 43.9578 -69.2383 243° Southwest 237 273 10,400 3,097 Climbing Boston Center
Thu 01:24:51 PM 43.9261 -69.3503 249° West 306 352 13,300 2,468 Climbing Boston Center
Thu 01:25:52 PM 43.9011 -69.4600 252° West 305 351 15,500 2,132 Climbing Boston Center
Thu 01:26:52 PM 43.8700 -69.5825 251° West 335 386 17,600 1,887 Climbing Boston Center
Thu 01:27:00 PM 43.7594 -69.8164 238° Southwest  Level FlightAware Approximate
Thu 01:27:56 PM 43.8403 -69.7053 251° West 345 397 19,400  Level Boston Center
Thu 01:28:57 PM 43.8075 -69.8364 251° West 357 411 21,300 2,579 Climbing Boston Center
Thu 01:29:57 PM 43.7750 -69.9736 252° West 370 426 24,600 2,806 Climbing Boston Center
Thu 01:31:01 PM 43.7419 -70.1022 250° West 358 412 27,100 2,129 Climbing Boston Center
Thu 01:32:01 PM 43.7094 -70.2344 251° West 358 412 29,000 1,438 Climbing Boston Center
Thu 01:33:02 PM 43.6733 -70.3725 250° West 370 426 30,000 492 Climbing Boston Center
Thu 01:34:03 PM 43.6339 -70.5325 251° West 425 489 30,000  Level Boston Center
Thu 01:35:05 PM 43.5858 -70.7250 251° West 438 504 30,000  Level Boston Center
Thu 01:36:06 PM 43.5492 -70.8681 251° West 446 513 30,000  Level Boston Center
Thu 01:37:09 PM 43.5122 -71.0303 253° West 447 514 30,000  Level Boston Center
Thu 01:38:09 PM 43.4694 -71.1886 250° West 443 510 30,000  Level Boston Center
Thu 01:39:10 PM 43.4189 -71.3767 250° West 439 505 30,000  Level Boston Center
Thu 01:41:14 PM 43.3336 -71.6917 250° West 440 506 30,000  Level Boston Center
Thu 01:42:14 PM 43.2911 -71.8494 250° West 438 504 30,000  Level Boston Center
Thu 01:43:17 PM 43.2481 -72.0100 250° West 447 514 30,000  Level Boston Center
Thu 01:44:18 PM 43.2050 -72.1683 250° West 447 514 30,000  Level Boston Center
Thu 01:45:18 PM 43.1619 -72.3261 250° West 444 511 30,000  Level Boston Center
Thu 01:46:22 PM 43.1125 -72.5131 250° West 442 509 30,000  Level Boston Center
Thu 01:47:22 PM 43.0706 -72.6575 248° West 443 510 30,000 -397 Level Boston Center
Thu 01:48:23 PM 43.0269 -72.8158 249° West 444 511 29,200 -1,091 Descending Boston Center
Thu 01:49:23 PM 42.9856 -72.9681 250° West 432 497 27,800 -1,548 Descending Boston Center
Thu 01:50:27 PM 42.9356 -73.1239 246° West 429 494 26,000 -1,355 Descending Boston Center
Thu 01:51:27 PM 42.8394 -73.2172 215° Southwest 438 504 25,000 -893 Descending Boston Center
Thu 01:52:28 PM 42.7189 -73.2617 195° South 453 521 24,200 -1,113 Descending Boston Center
Thu 01:53:31 PM 42.5986 -73.3050 195° South 455 524 22,700 -1,597 Descending Boston Center
Thu 01:54:32 PM 42.4578 -73.3556 195° South 446 513 20,900 -1,636 Descending Boston Center
Thu 01:55:32 PM 42.3422 -73.3978 195° South 438 504 19,400 -1,366 Descending Boston Center
Thu 01:56:35 PM 42.2292 -73.4389 195° South 428 493 18,100 -677 Descending Boston Center
Thu 01:57:36 PM 42.1167 -73.4817 196° South 423 487 18,000 -248 Descending Boston Center
Thu 01:58:36 PM 41.9922 -73.5358 198° South 419 482 17,600 -1,140 Descending Boston Center
Thu 01:59:37 PM 41.8811 -73.5803 197° South 416 479 15,700 -1,869 Descending Boston Center
Thu 02:00:38 PM 41.7681 -73.6272 197° South 397 457 13,800 -1,672 Descending Boston Center
Thu 02:01:39 PM 41.6686 -73.6675 197° South 378 435 12,300 -1,440 Descending Boston Center
Thu 02:02:43 PM 41.5697 -73.7078 197° South 371 427 10,800 -1,113 Descending Boston Center
Thu 02:03:43 PM 41.4908 -73.7392 197° South 298 343 10,000 -1,091 Descending Boston Center
Thu 02:04:44 PM 41.4164 -73.7697 197° South 263 303 8,600 -832 Descending Boston Center
Thu 02:06:00 PM 41.3167 -73.7833 186° South 289 333 8,100 -309 Descending New York TRACON
Thu 02:07:00 PM 41.2500 -73.7167 143° Southeast 301 346 7,900 -714 Descending New York TRACON
Thu 02:08:06 PM 41.1833 -73.6667 151° Southeast 292 336 6,600 -1,333 Descending New York TRACON
Thu 02:09:06 PM 41.1000 -73.6333 163° South 286 329 5,100 -1,250 Descending New York TRACON
Thu 02:10:06 PM 41.0333 -73.6167 169° South 274 315 4,100 -550 Descending New York TRACON
Thu 02:11:06 PM 40.9500 -73.6167 180° South 270 311 4,000  Descending New York TRACON
Thu 02:12:06 PM 40.8833 -73.6333 191° South 265 305 4,100 50 Climbing New York TRACON
Thu 02:13:06 PM 40.8167 -73.6667 201° Southwest 234 269 4,100 -50 Level New York TRACON
Thu 02:14:06 PM 40.7833 -73.7167 229° Southwest 222 255 4,000  Descending New York TRACON
Thu 02:15:06 PM 40.7833 -73.8000 270° West 246 283 4,100 50 Climbing New York TRACON
Thu 02:16:06 PM 40.7833 -73.9000 270° West 236 272 4,100  Level New York TRACON
Thu 02:17:06 PM 40.7667 -73.9667 252° West 212 244 4,100  Level New York TRACON
Thu 02:18:06 PM 40.7167 -74.0000 207° Southwest 196 226 4,100 -150 Level New York TRACON
Thu 02:19:06 PM 40.6833 -73.9833 159° South 213 245 3,800 -650 Descending New York TRACON
Thu 02:20:06 PM 40.7167 -73.9333 49° Northeast 190 219 2,800 -1,150 Descending New York TRACON
Thu 02:21:06 PM 40.7333 -73.8667 72° East 151 174 1,500 -1,053 Descending New York TRACON
Thu 02:22:00 PM 40.7500 -73.8333 57° Northeast 139 160 800 -778 Descending New York TRACON

Login

Don't have an account? Register now (free) for customized features, flight alerts, and more!